sensor_id;sensor_type;location;lat;lon;timestamp;P1;durP1;ratioP1;P2;durP2;ratioP2
46377;SDS011;32083;47.360;9.650;2023-06-19T04:02:57;10.13;;;8.60;;
46377;SDS011;32083;47.360;9.650;2023-06-19T04:05:23;10.18;;;9.27;;
46377;SDS011;32083;47.360;9.650;2023-06-19T04:07:51;9.52;;;8.63;;
46377;SDS011;32083;47.360;9.650;2023-06-19T04:10:17;9.60;;;8.80;;
46377;SDS011;32083;47.360;9.650;2023-06-19T04:12:43;8.93;;;8.20;;
46377;SDS011;32083;47.360;9.650;2023-06-19T04:15:10;8.38;;;7.68;;
46377;SDS011;32083;47.360;9.650;2023-06-19T04:17:36;8.18;;;7.47;;
46377;SDS011;32083;47.360;9.650;2023-06-19T04:20:03;8.80;;;8.00;;
46377;SDS011;32083;47.360;9.650;2023-06-19T04:22:36;8.65;;;7.78;;
46377;SDS011;32083;47.360;9.650;2023-06-19T04:25:04;8.38;;;7.60;;
46377;SDS011;32083;47.360;9.650;2023-06-19T04:27:31;8.45;;;7.65;;
46377;SDS011;32083;47.360;9.650;2023-06-19T04:29:57;8.00;;;7.30;;
46377;SDS011;32083;47.360;9.650;2023-06-19T04:32:23;8.18;;;7.45;;
46377;SDS011;32083;47.360;9.650;2023-06-19T04:34:48;9.35;;;8.45;;
46377;SDS011;32083;47.360;9.650;2023-06-19T04:37:14;8.38;;;7.57;;
46377;SDS011;32083;47.360;9.650;2023-06-19T04:39:44;9.90;;;7.00;;
46377;SDS011;32083;47.360;9.650;2023-06-19T04:42:13;7.80;;;7.07;;
46377;SDS011;32083;47.360;9.650;2023-06-19T04:44:48;7.82;;;7.13;;
46377;SDS011;32083;47.360;9.650;2023-06-19T04:47:16;12.20;;;7.80;;
46377;SDS011;32083;47.360;9.650;2023-06-19T04:49:43;9.88;;;7.57;;
46377;SDS011;32083;47.360;9.650;2023-06-19T04:52:09;18.10;;;8.15;;
46377;SDS011;32083;47.360;9.650;2023-06-19T04:54:36;10.32;;;7.20;;
46377;SDS011;32083;47.360;9.650;2023-06-19T04:57:02;8.90;;;7.60;;
46377;SDS011;32083;47.360;9.650;2023-06-19T04:59:29;8.70;;;7.90;;
46377;SDS011;32083;47.360;9.650;2023-06-19T05:01:58;11.20;;;8.52;;
46377;SDS011;32083;47.360;9.650;2023-06-19T05:04:25;9.80;;;8.80;;
46377;SDS011;32083;47.360;9.650;2023-06-19T05:06:51;10.98;;;9.98;;
46377;SDS011;32083;47.360;9.650;2023-06-19T05:09:17;8.88;;;7.97;;
46377;SDS011;32083;47.360;9.650;2023-06-19T05:11:43;9.32;;;8.43;;
46377;SDS011;32083;47.360;9.650;2023-06-19T05:14:09;8.50;;;7.72;;
46377;SDS011;32083;47.360;9.650;2023-06-19T05:16:36;9.50;;;7.75;;
46377;SDS011;32083;47.360;9.650;2023-06-19T05:19:02;14.38;;;7.10;;
46377;SDS011;32083;47.360;9.650;2023-06-19T05:21:28;11.95;;;8.95;;
46377;SDS011;32083;47.360;9.650;2023-06-19T05:23:54;7.03;;;6.40;;
46377;SDS011;32083;47.360;9.650;2023-06-19T05:26:20;7.50;;;6.80;;
46377;SDS011;32083;47.360;9.650;2023-06-19T05:28:47;7.57;;;6.80;;
46377;SDS011;32083;47.360;9.650;2023-06-19T05:31:13;7.55;;;6.40;;
46377;SDS011;32083;47.360;9.650;2023-06-19T05:33:40;7.35;;;6.55;;
46377;SDS011;32083;47.360;9.650;2023-06-19T05:36:06;7.97;;;5.80;;
46377;SDS011;32083;47.360;9.650;2023-06-19T05:38:32;7.55;;;6.85;;
46377;SDS011;32083;47.360;9.650;2023-06-19T05:40:59;8.77;;;7.50;;
46377;SDS011;32083;47.360;9.650;2023-06-19T05:43:25;6.72;;;6.13;;
46377;SDS011;32083;47.360;9.650;2023-06-19T05:45:52;15.18;;;7.38;;
46377;SDS011;32083;47.360;9.650;2023-06-19T05:48:18;10.38;;;8.30;;
46377;SDS011;32083;47.360;9.650;2023-06-19T05:50:44;9.38;;;8.55;;
46377;SDS011;32083;47.360;9.650;2023-06-19T05:53:10;11.85;;;9.68;;
46377;SDS011;32083;47.360;9.650;2023-06-19T05:55:36;14.55;;;10.77;;
46377;SDS011;32083;47.360;9.650;2023-06-19T05:58:02;13.35;;;9.93;;
46377;SDS011;32083;47.360;9.650;2023-06-19T06:00:29;11.63;;;9.13;;
46377;SDS011;32083;47.360;9.650;2023-06-19T06:02:56;11.23;;;10.15;;
46377;SDS011;32083;47.360;9.650;2023-06-19T06:05:24;10.90;;;9.77;;
46377;SDS011;32083;47.360;9.650;2023-06-19T06:07:54;10.70;;;9.68;;
46377;SDS011;32083;47.360;9.650;2023-06-19T06:10:21;13.52;;;10.15;;
46377;SDS011;32083;47.360;9.650;2023-06-19T06:12:48;10.25;;;9.25;;
46377;SDS011;32083;47.360;9.650;2023-06-19T06:15:14;9.85;;;8.85;;
46377;SDS011;32083;47.360;9.650;2023-06-19T06:17:41;10.63;;;9.68;;
46377;SDS011;32083;47.360;9.650;2023-06-19T06:20:07;11.82;;;8.93;;
46377;SDS011;32083;47.360;9.650;2023-06-19T06:22:39;10.35;;;9.40;;
46377;SDS011;32083;47.360;9.650;2023-06-19T06:25:21;11.32;;;8.80;;
46377;SDS011;32083;47.360;9.650;2023-06-19T06:27:50;11.25;;;9.20;;
46377;SDS011;32083;47.360;9.650;2023-06-19T06:30:19;9.57;;;8.32;;
46377;SDS011;32083;47.360;9.650;2023-06-19T06:32:46;9.95;;;8.82;;
46377;SDS011;32083;47.360;9.650;2023-06-19T06:35:14;11.73;;;8.90;;
46377;SDS011;32083;47.360;9.650;2023-06-19T06:37:42;10.20;;;9.30;;
46377;SDS011;32083;47.360;9.650;2023-06-19T06:40:23;11.57;;;8.60;;
46377;SDS011;32083;47.360;9.650;2023-06-19T06:42:50;9.45;;;7.78;;
46377;SDS011;32083;47.360;9.650;2023-06-19T06:45:18;10.93;;;7.72;;
46377;SDS011;32083;47.360;9.650;2023-06-19T06:47:45;9.02;;;8.23;;
46377;SDS011;32083;47.360;9.650;2023-06-19T06:50:11;9.18;;;8.32;;
46377;SDS011;32083;47.360;9.650;2023-06-19T06:52:37;10.98;;;9.18;;
46377;SDS011;32083;47.360;9.650;2023-06-19T06:55:04;13.55;;;9.25;;
46377;SDS011;32083;47.360;9.650;2023-06-19T06:57:30;9.40;;;8.45;;
46377;SDS011;32083;47.360;9.650;2023-06-19T06:59:56;10.20;;;8.73;;
46377;SDS011;32083;47.360;9.650;2023-06-19T07:02:22;9.52;;;8.52;;
46377;SDS011;32083;47.360;9.650;2023-06-19T07:04:49;8.60;;;7.65;;
46377;SDS011;32083;47.360;9.650;2023-06-19T07:07:15;9.02;;;8.10;;
46377;SDS011;32083;47.360;9.650;2023-06-19T07:09:41;10.77;;;7.95;;
46377;SDS011;32083;47.360;9.650;2023-06-19T07:12:07;8.60;;;7.70;;
46377;SDS011;32083;47.360;9.650;2023-06-19T07:14:33;11.95;;;7.80;;
46377;SDS011;32083;47.360;9.650;2023-06-19T07:16:59;11.98;;;7.85;;
46377;SDS011;32083;47.360;9.650;2023-06-19T07:19:25;7.03;;;6.32;;
46377;SDS011;32083;47.360;9.650;2023-06-19T07:21:51;8.20;;;7.25;;
46377;SDS011;32083;47.360;9.650;2023-06-19T07:24:17;8.25;;;7.57;;
46377;SDS011;32083;47.360;9.650;2023-06-19T07:26:45;6.57;;;5.78;;
46377;SDS011;32083;47.360;9.650;2023-06-19T07:29:12;8.32;;;5.93;;
46377;SDS011;32083;47.360;9.650;2023-06-19T07:31:38;7.85;;;7.05;;
46377;SDS011;32083;47.360;9.650;2023-06-19T07:34:04;6.60;;;5.40;;
46377;SDS011;32083;47.360;9.650;2023-06-19T07:36:30;6.18;;;5.60;;
46377;SDS011;32083;47.360;9.650;2023-06-19T07:38:56;5.95;;;5.32;;
46377;SDS011;32083;47.360;9.650;2023-06-19T07:41:22;7.88;;;6.47;;
46377;SDS011;32083;47.360;9.650;2023-06-19T07:43:48;7.07;;;5.88;;
46377;SDS011;32083;47.360;9.650;2023-06-19T07:46:14;12.20;;;7.53;;
46377;SDS011;32083;47.360;9.650;2023-06-19T07:48:42;6.78;;;5.90;;
46377;SDS011;32083;47.360;9.650;2023-06-19T07:51:08;6.60;;;6.00;;
46377;SDS011;32083;47.360;9.650;2023-06-19T07:53:35;5.45;;;5.05;;
46377;SDS011;32083;47.360;9.650;2023-06-19T07:56:01;7.80;;;6.35;;
46377;SDS011;32083;47.360;9.650;2023-06-19T07:58:27;5.80;;;5.30;;
46377;SDS011;32083;47.360;9.650;2023-06-19T08:00:53;7.50;;;5.93;;
46377;SDS011;32083;47.360;9.650;2023-06-19T08:03:19;6.90;;;6.20;;
46377;SDS011;32083;47.360;9.650;2023-06-19T08:05:45;6.13;;;5.63;;
46377;SDS011;32083;47.360;9.650;2023-06-19T08:08:12;6.57;;;6.07;;
46377;SDS011;32083;47.360;9.650;2023-06-19T08:10:38;8.38;;;6.35;;
46377;SDS011;32083;47.360;9.650;2023-06-19T08:13:06;7.18;;;6.57;;
46377;SDS011;32083;47.360;9.650;2023-06-19T08:15:32;7.80;;;7.10;;
46377;SDS011;32083;47.360;9.650;2023-06-19T08:17:58;8.85;;;7.95;;
46377;SDS011;32083;47.360;9.650;2023-06-19T08:20:24;7.93;;;7.25;;
46377;SDS011;32083;47.360;9.650;2023-06-19T08:22:49;8.35;;;7.55;;
46377;SDS011;32083;47.360;9.650;2023-06-19T08:25:15;8.85;;;7.78;;
46377;SDS011;32083;47.360;9.650;2023-06-19T08:27:42;8.80;;;7.88;;
46377;SDS011;32083;47.360;9.650;2023-06-19T08:30:10;8.98;;;7.53;;
46377;SDS011;32083;47.360;9.650;2023-06-19T08:32:36;9.05;;;8.15;;
46377;SDS011;32083;47.360;9.650;2023-06-19T08:35:02;8.98;;;8.10;;
46377;SDS011;32083;47.360;9.650;2023-06-19T08:37:28;8.88;;;8.07;;
46377;SDS011;32083;47.360;9.650;2023-06-19T08:39:54;8.98;;;7.95;;
46377;SDS011;32083;47.360;9.650;2023-06-19T08:42:21;9.25;;;8.45;;
46377;SDS011;32083;47.360;9.650;2023-06-19T08:44:48;9.20;;;8.38;;
46377;SDS011;32083;47.360;9.650;2023-06-19T08:47:14;9.25;;;8.27;;
46377;SDS011;32083;47.360;9.650;2023-06-19T08:49:40;8.63;;;7.82;;
46377;SDS011;32083;47.360;9.650;2023-06-19T08:52:06;8.45;;;7.75;;
46377;SDS011;32083;47.360;9.650;2023-06-19T08:54:32;10.52;;;9.18;;
46377;SDS011;32083;47.360;9.650;2023-06-19T08:57:02;10.13;;;9.25;;
46377;SDS011;32083;47.360;9.650;2023-06-19T08:59:29;10.68;;;8.57;;
46377;SDS011;32083;47.360;9.650;2023-06-19T09:01:57;13.55;;;9.77;;
46377;SDS011;32083;47.360;9.650;2023-06-19T09:04:27;9.82;;;8.95;;
46377;SDS011;32083;47.360;9.650;2023-06-19T09:09:27;10.48;;;9.60;;
46377;SDS011;32083;47.360;9.650;2023-06-19T09:12:03;8.85;;;8.10;;
46377;SDS011;32083;47.360;9.650;2023-06-19T09:14:35;10.27;;;9.38;;
46377;SDS011;32083;47.360;9.650;2023-06-19T09:17:06;11.18;;;9.95;;
46377;SDS011;32083;47.360;9.650;2023-06-19T09:19:33;12.85;;;8.85;;
46377;SDS011;32083;47.360;9.650;2023-06-19T09:22:03;10.90;;;8.10;;
46377;SDS011;32083;47.360;9.650;2023-06-19T09:24:38;8.77;;;8.13;;
46377;SDS011;32083;47.360;9.650;2023-06-19T09:27:06;9.48;;;8.50;;
46377;SDS011;32083;47.360;9.650;2023-06-19T09:29:40;9.77;;;8.88;;
46377;SDS011;32083;47.360;9.650;2023-06-19T09:34:50;7.87;;;7.07;;
46377;SDS011;32083;47.360;9.650;2023-06-19T09:37:20;7.18;;;6.57;;
46377;SDS011;32083;47.360;9.650;2023-06-19T09:39:54;6.95;;;6.35;;
46377;SDS011;32083;47.360;9.650;2023-06-19T09:42:32;7.20;;;6.50;;
46377;SDS011;32083;47.360;9.650;2023-06-19T09:45:04;7.80;;;7.10;;
46377;SDS011;32083;47.360;9.650;2023-06-19T09:47:46;10.38;;;7.22;;
46377;SDS011;32083;47.360;9.650;2023-06-19T09:50:17;6.22;;;5.50;;
46377;SDS011;32083;47.360;9.650;2023-06-19T09:52:43;6.93;;;6.32;;
46377;SDS011;32083;47.360;9.650;2023-06-19T09:55:10;6.57;;;5.85;;
46377;SDS011;32083;47.360;9.650;2023-06-19T09:57:40;6.72;;;6.07;;
46377;SDS011;32083;47.360;9.650;2023-06-19T10:00:07;6.82;;;6.22;;
46377;SDS011;32083;47.360;9.650;2023-06-19T10:02:41;6.63;;;6.13;;
46377;SDS011;32083;47.360;9.650;2023-06-19T10:05:09;6.72;;;6.13;;
46377;SDS011;32083;47.360;9.650;2023-06-19T10:07:38;7.30;;;6.22;;
46377;SDS011;32083;47.360;9.650;2023-06-19T10:10:07;9.35;;;6.13;;
46377;SDS011;32083;47.360;9.650;2023-06-19T10:12:47;6.47;;;5.97;;
46377;SDS011;32083;47.360;9.650;2023-06-19T10:17:50;5.82;;;5.22;;
46377;SDS011;32083;47.360;9.650;2023-06-19T10:20:21;5.88;;;5.38;;
46377;SDS011;32083;47.360;9.650;2023-06-19T10:25:44;4.65;;;4.25;;
46377;SDS011;32083;47.360;9.650;2023-06-19T10:28:27;5.18;;;4.75;;
46377;SDS011;32083;47.360;9.650;2023-06-19T10:31:04;5.18;;;4.78;;
46377;SDS011;32083;47.360;9.650;2023-06-19T10:33:32;9.25;;;5.78;;
46377;SDS011;32083;47.360;9.650;2023-06-19T10:36:15;5.68;;;5.13;;
46377;SDS011;32083;47.360;9.650;2023-06-19T10:38:50;6.20;;;5.18;;
46377;SDS011;32083;47.360;9.650;2023-06-19T10:41:20;5.68;;;4.82;;
46377;SDS011;32083;47.360;9.650;2023-06-19T10:44:06;5.18;;;4.68;;
46377;SDS011;32083;47.360;9.650;2023-06-19T10:46:38;5.25;;;4.75;;
46377;SDS011;32083;47.360;9.650;2023-06-19T10:49:06;5.13;;;4.72;;
46377;SDS011;32083;47.360;9.650;2023-06-19T10:51:36;5.40;;;4.90;;
46377;SDS011;32083;47.360;9.650;2023-06-19T10:54:03;5.90;;;5.40;;
46377;SDS011;32083;47.360;9.650;2023-06-19T10:56:30;5.07;;;4.57;;
46377;SDS011;32083;47.360;9.650;2023-06-19T10:58:57;4.95;;;4.40;;
46377;SDS011;32083;47.360;9.650;2023-06-19T11:01:31;5.72;;;5.25;;
46377;SDS011;32083;47.360;9.650;2023-06-19T11:04:05;5.32;;;4.93;;
46377;SDS011;32083;47.360;9.650;2023-06-19T11:06:33;5.45;;;5.05;;
46377;SDS011;32083;47.360;9.650;2023-06-19T11:08:59;5.68;;;4.72;;
46377;SDS011;32083;47.360;9.650;2023-06-19T11:11:41;5.72;;;4.60;;
46377;SDS011;32083;47.360;9.650;2023-06-19T11:14:08;4.60;;;4.20;;
46377;SDS011;32083;47.360;9.650;2023-06-19T11:16:42;4.80;;;4.30;;
46377;SDS011;32083;47.360;9.650;2023-06-19T11:19:14;6.15;;;5.60;;
46377;SDS011;32083;47.360;9.650;2023-06-19T11:21:49;5.35;;;4.93;;
46377;SDS011;32083;47.360;9.650;2023-06-19T11:24:16;4.93;;;4.35;;
46377;SDS011;32083;47.360;9.650;2023-06-19T11:26:43;4.63;;;4.22;;
46377;SDS011;32083;47.360;9.650;2023-06-19T11:34:30;6.47;;;4.75;;
46377;SDS011;32083;47.360;9.650;2023-06-19T11:37:16;5.53;;;4.75;;
46377;SDS011;32083;47.360;9.650;2023-06-19T11:39:51;4.03;;;3.72;;
46377;SDS011;32083;47.360;9.650;2023-06-19T11:42:56;6.97;;;4.03;;
46377;SDS011;32083;47.360;9.650;2023-06-19T11:45:48;4.22;;;3.80;;
46377;SDS011;32083;47.360;9.650;2023-06-19T11:48:32;6.00;;;4.10;;
46377;SDS011;32083;47.360;9.650;2023-06-19T11:51:04;3.85;;;3.55;;
46377;SDS011;32083;47.360;9.650;2023-06-19T11:53:33;6.15;;;4.10;;
46377;SDS011;32083;47.360;9.650;2023-06-19T11:56:04;3.95;;;3.65;;
46377;SDS011;32083;47.360;9.650;2023-06-19T11:58:36;9.70;;;3.78;;
46377;SDS011;32083;47.360;9.650;2023-06-19T12:01:05;4.55;;;4.00;;
46377;SDS011;32083;47.360;9.650;2023-06-19T12:03:34;7.28;;;4.45;;
46377;SDS011;32083;47.360;9.650;2023-06-19T12:06:02;18.60;;;5.30;;
46377;SDS011;32083;47.360;9.650;2023-06-19T12:09:04;6.10;;;4.05;;
46377;SDS011;32083;47.360;9.650;2023-06-19T12:11:35;3.95;;;3.65;;
46377;SDS011;32083;47.360;9.650;2023-06-19T12:14:01;4.10;;;3.72;;
46377;SDS011;32083;47.360;9.650;2023-06-19T12:16:30;5.05;;;4.55;;
46377;SDS011;32083;47.360;9.650;2023-06-19T12:18:56;3.95;;;3.10;;
46377;SDS011;32083;47.360;9.650;2023-06-19T12:21:22;3.70;;;3.40;;
46377;SDS011;32083;47.360;9.650;2023-06-19T12:23:51;4.05;;;3.40;;
46377;SDS011;32083;47.360;9.650;2023-06-19T12:26:17;3.67;;;3.35;;
46377;SDS011;32083;47.360;9.650;2023-06-19T12:28:49;4.20;;;3.17;;
46377;SDS011;32083;47.360;9.650;2023-06-19T12:31:21;3.90;;;3.50;;
46377;SDS011;32083;47.360;9.650;2023-06-19T12:36:48;4.38;;;3.60;;
46377;SDS011;32083;47.360;9.650;2023-06-19T12:39:41;6.00;;;4.15;;
46377;SDS011;32083;47.360;9.650;2023-06-19T12:42:13;14.45;;;4.40;;
46377;SDS011;32083;47.360;9.650;2023-06-19T12:44:44;3.60;;;3.30;;
46377;SDS011;32083;47.360;9.650;2023-06-19T12:47:11;3.83;;;3.47;;
46377;SDS011;32083;47.360;9.650;2023-06-19T12:49:47;4.03;;;3.72;;
46377;SDS011;32083;47.360;9.650;2023-06-19T12:52:13;4.88;;;4.30;;
46377;SDS011;32083;47.360;9.650;2023-06-19T12:54:45;3.97;;;3.60;;
46377;SDS011;32083;47.360;9.650;2023-06-19T12:57:11;5.03;;;3.88;;
46377;SDS011;32083;47.360;9.650;2023-06-19T12:59:39;4.28;;;3.97;;
46377;SDS011;32083;47.360;9.650;2023-06-19T13:02:13;5.32;;;3.53;;
46377;SDS011;32083;47.360;9.650;2023-06-19T13:04:48;4.97;;;4.55;;
46377;SDS011;32083;47.360;9.650;2023-06-19T13:13:45;7.65;;;4.72;;
46377;SDS011;32083;47.360;9.650;2023-06-19T13:18:59;6.20;;;4.55;;
46377;SDS011;32083;47.360;9.650;2023-06-19T13:21:31;4.78;;;4.38;;
46377;SDS011;32083;47.360;9.650;2023-06-19T13:24:08;5.28;;;4.78;;
46377;SDS011;32083;47.360;9.650;2023-06-19T13:26:34;5.55;;;4.78;;
46377;SDS011;32083;47.360;9.650;2023-06-19T13:29:01;5.38;;;4.97;;
46377;SDS011;32083;47.360;9.650;2023-06-19T13:31:27;6.75;;;4.60;;
46377;SDS011;32083;47.360;9.650;2023-06-19T13:33:52;7.10;;;4.82;;
46377;SDS011;32083;47.360;9.650;2023-06-19T13:36:18;4.60;;;4.30;;
46377;SDS011;32083;47.360;9.650;2023-06-19T13:38:45;5.80;;;5.30;;
46377;SDS011;32083;47.360;9.650;2023-06-19T13:41:12;7.75;;;4.85;;
46377;SDS011;32083;47.360;9.650;2023-06-19T13:43:38;6.88;;;5.10;;
46377;SDS011;32083;47.360;9.650;2023-06-19T13:46:07;5.22;;;4.70;;
46377;SDS011;32083;47.360;9.650;2023-06-19T13:48:33;5.90;;;5.40;;
46377;SDS011;32083;47.360;9.650;2023-06-19T13:51:00;5.20;;;4.80;;
46377;SDS011;32083;47.360;9.650;2023-06-19T13:53:26;5.82;;;4.85;;
46377;SDS011;32083;47.360;9.650;2023-06-19T13:55:53;5.28;;;4.88;;
46377;SDS011;32083;47.360;9.650;2023-06-19T13:58:19;4.97;;;4.57;;
46377;SDS011;32083;47.360;9.650;2023-06-19T14:00:45;5.18;;;4.75;;
46377;SDS011;32083;47.360;9.650;2023-06-19T14:03:12;5.15;;;4.75;;
46377;SDS011;32083;47.360;9.650;2023-06-19T14:05:38;4.82;;;4.43;;
46377;SDS011;32083;47.360;9.650;2023-06-19T14:08:05;6.72;;;5.20;;
46377;SDS011;32083;47.360;9.650;2023-06-19T14:10:31;5.10;;;4.70;;
46377;SDS011;32083;47.360;9.650;2023-06-19T14:12:57;5.03;;;4.60;;
46377;SDS011;32083;47.360;9.650;2023-06-19T14:15:23;5.78;;;5.18;;
46377;SDS011;32083;47.360;9.650;2023-06-19T14:17:49;5.65;;;5.15;;
46377;SDS011;32083;47.360;9.650;2023-06-19T14:20:15;5.30;;;4.90;;
46377;SDS011;32083;47.360;9.650;2023-06-19T14:22:41;5.15;;;4.65;;
46377;SDS011;32083;47.360;9.650;2023-06-19T14:25:07;5.85;;;4.82;;
46377;SDS011;32083;47.360;9.650;2023-06-19T14:27:33;8.20;;;5.80;;
46377;SDS011;32083;47.360;9.650;2023-06-19T14:29:59;5.80;;;5.30;;
46377;SDS011;32083;47.360;9.650;2023-06-19T14:32:25;5.72;;;5.25;;
46377;SDS011;32083;47.360;9.650;2023-06-19T14:34:51;5.18;;;4.78;;
46377;SDS011;32083;47.360;9.650;2023-06-19T14:37:17;5.88;;;5.43;;
46377;SDS011;32083;47.360;9.650;2023-06-19T14:39:43;5.95;;;5.40;;
46377;SDS011;32083;47.360;9.650;2023-06-19T14:42:09;5.43;;;5.03;;
46377;SDS011;32083;47.360;9.650;2023-06-19T14:44:36;7.18;;;5.40;;
46377;SDS011;32083;47.360;9.650;2023-06-19T14:47:02;5.45;;;5.05;;
46377;SDS011;32083;47.360;9.650;2023-06-19T14:49:28;6.05;;;5.55;;
46377;SDS011;32083;47.360;9.650;2023-06-19T14:51:54;5.50;;;5.00;;
46377;SDS011;32083;47.360;9.650;2023-06-19T14:54:22;5.60;;;4.90;;
46377;SDS011;32083;47.360;9.650;2023-06-19T14:56:48;5.70;;;5.30;;
46377;SDS011;32083;47.360;9.650;2023-06-19T14:59:15;6.03;;;5.43;;
46377;SDS011;32083;47.360;9.650;2023-06-19T15:01:41;8.57;;;5.57;;
46377;SDS011;32083;47.360;9.650;2023-06-19T15:04:07;7.03;;;5.72;;
46377;SDS011;32083;47.360;9.650;2023-06-19T15:06:33;6.47;;;5.90;;
46377;SDS011;32083;47.360;9.650;2023-06-19T15:08:59;7.60;;;6.45;;
46377;SDS011;32083;47.360;9.650;2023-06-19T15:11:25;6.10;;;5.60;;
46377;SDS011;32083;47.360;9.650;2023-06-19T15:13:51;5.80;;;4.82;;
46377;SDS011;32083;47.360;9.650;2023-06-19T15:16:16;11.48;;;5.65;;
46377;SDS011;32083;47.360;9.650;2023-06-19T15:18:44;6.82;;;5.55;;
46377;SDS011;32083;47.360;9.650;2023-06-19T15:21:10;6.55;;;5.95;;
46377;SDS011;32083;47.360;9.650;2023-06-19T15:23:36;5.65;;;5.15;;
46377;SDS011;32083;47.360;9.650;2023-06-19T15:26:03;6.28;;;5.50;;
46377;SDS011;32083;47.360;9.650;2023-06-19T15:28:32;7.05;;;6.28;;
46377;SDS011;32083;47.360;9.650;2023-06-19T15:30:58;6.50;;;5.93;;
46377;SDS011;32083;47.360;9.650;2023-06-19T15:33:25;7.03;;;6.32;;
46377;SDS011;32083;47.360;9.650;2023-06-19T15:35:51;6.60;;;6.10;;
46377;SDS011;32083;47.360;9.650;2023-06-19T15:38:17;6.20;;;5.03;;
46377;SDS011;32083;47.360;9.650;2023-06-19T15:40:43;7.35;;;5.03;;
46377;SDS011;32083;47.360;9.650;2023-06-19T15:43:10;5.00;;;4.60;;
46377;SDS011;32083;47.360;9.650;2023-06-19T15:45:36;4.90;;;4.50;;
46377;SDS011;32083;47.360;9.650;2023-06-19T15:48:02;7.25;;;4.60;;
46377;SDS011;32083;47.360;9.650;2023-06-19T15:50:28;4.95;;;4.55;;
46377;SDS011;32083;47.360;9.650;2023-06-19T15:52:54;5.28;;;4.82;;
46377;SDS011;32083;47.360;9.650;2023-06-19T15:55:19;6.18;;;4.53;;
46377;SDS011;32083;47.360;9.650;2023-06-19T15:57:46;5.00;;;4.03;;
46377;SDS011;32083;47.360;9.650;2023-06-19T16:00:12;5.40;;;4.50;;
46377;SDS011;32083;47.360;9.650;2023-06-19T16:02:42;4.30;;;3.80;;
46377;SDS011;32083;47.360;9.650;2023-06-19T16:05:09;4.85;;;4.40;;
46377;SDS011;32083;47.360;9.650;2023-06-19T16:07:35;4.47;;;4.07;;
46377;SDS011;32083;47.360;9.650;2023-06-19T16:10:02;4.20;;;3.80;;
46377;SDS011;32083;47.360;9.650;2023-06-19T16:12:28;5.13;;;4.72;;
46377;SDS011;32083;47.360;9.650;2023-06-19T16:14:54;4.47;;;4.07;;
46377;SDS011;32083;47.360;9.650;2023-06-19T16:17:20;5.72;;;5.22;;
46377;SDS011;32083;47.360;9.650;2023-06-19T16:19:46;5.75;;;4.25;;
46377;SDS011;32083;47.360;9.650;2023-06-19T16:22:11;5.13;;;4.68;;
46377;SDS011;32083;47.360;9.650;2023-06-19T16:24:37;4.55;;;3.85;;
46377;SDS011;32083;47.360;9.650;2023-06-19T16:27:05;5.05;;;4.55;;
46377;SDS011;32083;47.360;9.650;2023-06-19T16:29:31;4.90;;;4.50;;
46377;SDS011;32083;47.360;9.650;2023-06-19T16:31:57;4.18;;;3.88;;
46377;SDS011;32083;47.360;9.650;2023-06-19T16:34:24;6.80;;;4.55;;
46377;SDS011;32083;47.360;9.650;2023-06-19T16:36:50;6.68;;;4.82;;
46377;SDS011;32083;47.360;9.650;2023-06-19T16:39:16;4.60;;;4.18;;
46377;SDS011;32083;47.360;9.650;2023-06-19T16:41:45;5.25;;;4.72;;
46377;SDS011;32083;47.360;9.650;2023-06-19T16:44:11;5.03;;;4.47;;
46377;SDS011;32083;47.360;9.650;2023-06-19T16:46:37;5.50;;;4.97;;
46377;SDS011;32083;47.360;9.650;2023-06-19T16:49:04;5.20;;;4.68;;
46377;SDS011;32083;47.360;9.650;2023-06-19T16:51:30;5.40;;;4.60;;
46377;SDS011;32083;47.360;9.650;2023-06-19T16:53:56;5.18;;;4.78;;
46377;SDS011;32083;47.360;9.650;2023-06-19T16:56:22;5.35;;;4.85;;
46377;SDS011;32083;47.360;9.650;2023-06-19T16:58:48;4.90;;;4.20;;
46377;SDS011;32083;47.360;9.650;2023-06-19T17:01:14;5.10;;;4.70;;
46377;SDS011;32083;47.360;9.650;2023-06-19T17:03:40;5.85;;;4.68;;
46377;SDS011;32083;47.360;9.650;2023-06-19T17:06:06;4.82;;;4.40;;
46377;SDS011;32083;47.360;9.650;2023-06-19T17:08:32;5.10;;;4.60;;
46377;SDS011;32083;47.360;9.650;2023-06-19T17:10:58;6.35;;;4.88;;
46377;SDS011;32083;47.360;9.650;2023-06-19T17:13:24;9.35;;;4.40;;
46377;SDS011;32083;47.360;9.650;2023-06-19T17:15:50;4.82;;;4.38;;
46377;SDS011;32083;47.360;9.650;2023-06-19T17:18:16;6.03;;;5.25;;
46377;SDS011;32083;47.360;9.650;2023-06-19T17:20:42;5.45;;;4.93;;
46377;SDS011;32083;47.360;9.650;2023-06-19T17:23:08;5.00;;;4.60;;
46377;SDS011;32083;47.360;9.650;2023-06-19T17:25:34;5.50;;;5.00;;
46377;SDS011;32083;47.360;9.650;2023-06-19T17:28:00;6.30;;;5.63;;
46377;SDS011;32083;47.360;9.650;2023-06-19T17:30:31;10.52;;;6.18;;
46377;SDS011;32083;47.360;9.650;2023-06-19T17:33:03;15.95;;;7.43;;
46377;SDS011;32083;47.360;9.650;2023-06-19T17:35:37;7.90;;;7.20;;
46377;SDS011;32083;47.360;9.650;2023-06-19T17:38:15;9.25;;;6.55;;
46377;SDS011;32083;47.360;9.650;2023-06-19T17:40:45;6.78;;;6.03;;
46377;SDS011;32083;47.360;9.650;2023-06-19T17:43:11;8.13;;;6.50;;
46377;SDS011;32083;47.360;9.650;2023-06-19T17:45:37;8.00;;;6.57;;
46377;SDS011;32083;47.360;9.650;2023-06-19T17:48:03;4.35;;;2.35;;
46377;SDS011;32083;47.360;9.650;2023-06-19T17:50:29;2.40;;;1.70;;
46377;SDS011;32083;47.360;9.650;2023-06-19T17:52:55;5.82;;;1.80;;
46377;SDS011;32083;47.360;9.650;2023-06-19T17:55:21;4.93;;;1.80;;
46377;SDS011;32083;47.360;9.650;2023-06-19T17:57:47;5.30;;;2.25;;
46377;SDS011;32083;47.360;9.650;2023-06-19T18:00:13;2.25;;;2.03;;
46377;SDS011;32083;47.360;9.650;2023-06-19T18:02:39;2.47;;;2.25;;
46377;SDS011;32083;47.360;9.650;2023-06-19T18:05:05;2.70;;;2.38;;
46377;SDS011;32083;47.360;9.650;2023-06-19T18:07:31;4.80;;;2.70;;
46377;SDS011;32083;47.360;9.650;2023-06-19T18:09:57;6.40;;;3.72;;
46377;SDS011;32083;47.360;9.650;2023-06-19T18:12:24;4.93;;;3.10;;
46377;SDS011;32083;47.360;9.650;2023-06-19T18:14:49;3.35;;;3.03;;
46377;SDS011;32083;47.360;9.650;2023-06-19T18:17:15;5.85;;;2.97;;
46377;SDS011;32083;47.360;9.650;2023-06-19T18:19:41;4.15;;;3.38;;
46377;SDS011;32083;47.360;9.650;2023-06-19T18:22:07;4.90;;;3.88;;
46377;SDS011;32083;47.360;9.650;2023-06-19T18:24:33;5.40;;;4.55;;
46377;SDS011;32083;47.360;9.650;2023-06-19T18:26:59;5.85;;;2.80;;
46377;SDS011;32083;47.360;9.650;2023-06-19T18:29:25;6.35;;;3.10;;
46377;SDS011;32083;47.360;9.650;2023-06-19T18:31:55;5.55;;;3.10;;
46377;SDS011;32083;47.360;9.650;2023-06-19T18:34:22;4.70;;;3.05;;
46377;SDS011;32083;47.360;9.650;2023-06-19T18:36:48;5.38;;;3.58;;
46377;SDS011;32083;47.360;9.650;2023-06-19T18:39:14;3.72;;;3.38;;
46377;SDS011;32083;47.360;9.650;2023-06-19T18:47:53;4.40;;;3.80;;
46377;SDS011;32083;47.360;9.650;2023-06-19T18:50:30;7.53;;;4.53;;
46377;SDS011;32083;47.360;9.650;2023-06-19T18:53:14;6.32;;;4.03;;
46377;SDS011;32083;47.360;9.650;2023-06-19T18:55:39;5.55;;;5.03;;
46377;SDS011;32083;47.360;9.650;2023-06-19T18:58:06;6.78;;;4.82;;
46377;SDS011;32083;47.360;9.650;2023-06-19T19:00:32;7.18;;;4.97;;
46377;SDS011;32083;47.360;9.650;2023-06-19T19:02:59;6.15;;;4.13;;
46377;SDS011;32083;47.360;9.650;2023-06-19T19:05:25;6.13;;;4.63;;
46377;SDS011;32083;47.360;9.650;2023-06-19T19:07:51;7.20;;;4.82;;
46377;SDS011;32083;47.360;9.650;2023-06-19T19:10:17;5.03;;;4.53;;
46377;SDS011;32083;47.360;9.650;2023-06-19T19:12:43;6.25;;;4.30;;
46377;SDS011;32083;47.360;9.650;2023-06-19T19:15:09;4.72;;;3.67;;
46377;SDS011;32083;47.360;9.650;2023-06-19T19:17:35;4.53;;;4.13;;
46377;SDS011;32083;47.360;9.650;2023-06-19T19:20:01;5.38;;;4.22;;
46377;SDS011;32083;47.360;9.650;2023-06-19T19:22:31;5.40;;;4.75;;
46377;SDS011;32083;47.360;9.650;2023-06-19T19:24:57;4.40;;;4.00;;
46377;SDS011;32083;47.360;9.650;2023-06-19T19:27:23;4.90;;;4.10;;